Time;durP1;ratioP1;P1;durP2;ratioP2;P2;SDS_P1;SDS_P2;PMS_P1;PMS_P2;Temp;Humidity;BMP_temperature;BMP_pressure;BME280_temperature;BME280_humidity;BME280_pressure;Samples;Min_cycle;Max_cycle;Signal;HPM_P1;HPM_P2
2024/01/29 00:01:56;;;;;;;17.63;8.20;;;;;;;;;;4979320;28;20834;-74
2024/01/29 00:04:22;;;;;;;14.33;7.90;;;;;;;;;;4978770;28;20232;-73
2024/01/29 00:06:47;;;;;;;19.53;8.30;;;;;;;;;;4975783;28;20243;-73
2024/01/29 00:09:12;;;;;;;17.87;8.10;;;;;;;;;;4980950;28;20227;-73
2024/01/29 00:11:38;;;;;;;17.87;8.40;;;;;;;;;;4979288;28;20226;-74
2024/01/29 00:14:05;;;;;;;16.13;8.30;;;;;;;;;;4979587;28;20223;-74
2024/01/29 00:16:30;;;;;;;14.77;8.33;;;;;;;;;;4995031;28;20251;-75
2024/01/29 00:18:55;;;;;;;14.67;7.50;;;;;;;;;;4979217;28;20258;-75
2024/01/29 00:21:21;;;;;;;15.80;8.07;;;;;;;;;;4995284;28;20311;-74
2024/01/29 00:23:46;;;;;;;14.47;7.63;;;;;;;;;;4962897;28;20302;-74
2024/01/29 00:26:11;;;;;;;16.47;8.07;;;;;;;;;;4981708;28;20318;-74
2024/01/29 00:28:37;;;;;;;15.13;7.90;;;;;;;;;;4981245;28;20245;-74
2024/01/29 00:31:02;;;;;;;17.67;7.97;;;;;;;;;;4979463;28;20654;-75
2024/01/29 00:33:27;;;;;;;17.77;8.13;;;;;;;;;;4992134;28;20692;-75
2024/01/29 00:35:53;;;;;;;15.97;7.77;;;;;;;;;;4965158;28;20260;-75
2024/01/29 00:38:18;;;;;;;15.67;7.50;;;;;;;;;;4980714;28;20220;-75
2024/01/29 00:40:43;;;;;;;16.80;7.60;;;;;;;;;;4973877;28;20228;-74
2024/01/29 00:43:09;;;;;;;15.73;7.70;;;;;;;;;;4977004;28;20705;-73
2024/01/29 00:45:34;;;;;;;16.30;8.00;;;;;;;;;;4981707;28;20306;-75
2024/01/29 00:47:59;;;;;;;15.57;8.00;;;;;;;;;;4993492;28;20231;-75
2024/01/29 00:50:25;;;;;;;18.73;7.70;;;;;;;;;;4976192;28;20253;-73
2024/01/29 00:52:50;;;;;;;16.93;8.07;;;;;;;;;;4979662;28;20246;-74
2024/01/29 00:55:15;;;;;;;15.17;8.00;;;;;;;;;;4976588;28;20227;-74
2024/01/29 00:57:41;;;;;;;18.07;8.40;;;;;;;;;;4983061;28;20791;-72
2024/01/29 01:00:10;;;;;;;15.03;7.60;;;;;;;;;;4982214;28;20693;-73
2024/01/29 01:02:35;;;;;;;15.83;8.53;;;;;;;;;;4965634;28;20751;-73
2024/01/29 01:05:01;;;;;;;21.93;9.97;;;;;;;;;;4965706;28;20243;-74
2024/01/29 01:07:27;;;;;;;21.53;9.20;;;;;;;;;;4969352;28;20633;-73
2024/01/29 01:09:52;;;;;;;21.70;9.77;;;;;;;;;;4985237;28;20275;-73
2024/01/29 01:12:17;;;;;;;19.67;8.70;;;;;;;;;;4963483;28;20231;-74
2024/01/29 01:14:43;;;;;;;19.43;9.20;;;;;;;;;;4980540;28;20321;-73
2024/01/29 01:17:08;;;;;;;16.97;8.40;;;;;;;;;;4985101;28;20275;-73
2024/01/29 01:19:33;;;;;;;22.40;9.83;;;;;;;;;;4981153;28;20223;-73
2024/01/29 01:21:59;;;;;;;15.57;7.67;;;;;;;;;;4980639;28;20251;-74
2024/01/29 01:24:24;;;;;;;17.83;7.90;;;;;;;;;;4974992;28;20297;-74
2024/01/29 01:26:50;;;;;;;16.20;7.57;;;;;;;;;;4978465;28;20314;-74
2024/01/29 01:29:15;;;;;;;16.70;7.67;;;;;;;;;;4998289;28;20284;-75
2024/01/29 01:31:40;;;;;;;17.33;7.50;;;;;;;;;;4966245;28;20239;-75
2024/01/29 01:34:06;;;;;;;14.67;7.13;;;;;;;;;;4972383;28;20224;-75
2024/01/29 01:36:31;;;;;;;15.57;7.50;;;;;;;;;;4967448;28;20227;-74
2024/01/29 01:38:57;;;;;;;16.30;7.33;;;;;;;;;;4971106;28;20692;-75
2024/01/29 01:41:22;;;;;;;12.93;6.93;;;;;;;;;;4989779;28;20266;-74
2024/01/29 01:43:47;;;;;;;14.43;7.37;;;;;;;;;;4986529;28;20234;-75
2024/01/29 01:46:20;;;;;;;13.30;7.47;;;;;;;;;;4977588;28;20598;-75
2024/01/29 01:48:45;;;;;;;15.67;7.53;;;;;;;;;;4978532;28;20244;-73
2024/01/29 01:51:11;;;;;;;14.77;7.63;;;;;;;;;;4970240;28;20242;-74
2024/01/29 01:53:36;;;;;;;13.40;7.33;;;;;;;;;;4981431;28;20244;-75
2024/01/29 01:56:02;;;;;;;18.17;7.53;;;;;;;;;;4986109;28;20305;-75
2024/01/29 01:58:27;;;;;;;13.40;7.00;;;;;;;;;;4980044;28;20227;-74
2024/01/29 02:00:52;;;;;;;14.20;7.43;;;;;;;;;;4983659;28;20263;-74
2024/01/29 02:03:18;;;;;;;15.30;7.70;;;;;;;;;;4983630;28;20250;-73
2024/01/29 02:05:43;;;;;;;15.00;7.40;;;;;;;;;;4984920;28;20235;-74
2024/01/29 02:08:08;;;;;;;16.60;8.53;;;;;;;;;;4982200;28;20815;-74
2024/01/29 02:10:34;;;;;;;17.00;7.80;;;;;;;;;;4983134;28;20235;-74
2024/01/29 02:12:59;;;;;;;18.77;8.60;;;;;;;;;;4973111;28;21061;-74
2024/01/29 02:15:24;;;;;;;17.00;8.03;;;;;;;;;;4973877;28;20227;-73
2024/01/29 02:17:50;;;;;;;15.93;7.47;;;;;;;;;;4994629;28;20742;-74
2024/01/29 02:20:16;;;;;;;14.93;7.57;;;;;;;;;;4980682;28;20772;-74
2024/01/29 02:22:45;;;;;;;15.60;7.47;;;;;;;;;;4992734;28;20231;-74
2024/01/29 02:25:10;;;;;;;14.60;7.53;;;;;;;;;;4970885;28;20270;-73
2024/01/29 02:27:36;;;;;;;15.30;7.63;;;;;;;;;;4984100;28;20259;-74
2024/01/29 02:30:01;;;;;;;16.50;7.43;;;;;;;;;;4967831;28;20239;-74
2024/01/29 02:32:26;;;;;;;16.00;7.30;;;;;;;;;;4982014;28;20231;-74
2024/01/29 02:34:52;;;;;;;15.80;7.37;;;;;;;;;;4985355;28;20223;-73
2024/01/29 02:37:17;;;;;;;14.23;7.60;;;;;;;;;;4980991;28;20231;-75
2024/01/29 02:39:42;;;;;;;14.03;7.50;;;;;;;;;;4981899;28;20227;-74
2024/01/29 02:42:08;;;;;;;14.30;7.37;;;;;;;;;;4983395;28;20743;-74
2024/01/29 02:44:33;;;;;;;15.30;7.73;;;;;;;;;;4985482;28;20227;-74
2024/01/29 02:46:58;;;;;;;14.03;7.80;;;;;;;;;;4980463;28;20246;-74
2024/01/29 02:49:24;;;;;;;15.53;7.77;;;;;;;;;;4979034;28;20232;-74
2024/01/29 02:51:49;;;;;;;13.33;7.33;;;;;;;;;;4983217;28;20234;-74
2024/01/29 02:54:14;;;;;;;15.30;7.67;;;;;;;;;;4979653;28;20351;-75
2024/01/29 02:56:40;;;;;;;15.40;7.30;;;;;;;;;;4980861;28;20232;-74
2024/01/29 02:59:05;;;;;;;14.97;7.87;;;;;;;;;;4979220;28;20228;-74
2024/01/29 03:01:30;;;;;;;14.00;7.33;;;;;;;;;;4981675;28;20231;-74
2024/01/29 03:03:56;;;;;;;16.83;8.00;;;;;;;;;;4986590;28;20281;-75
2024/01/29 03:06:21;;;;;;;18.27;7.90;;;;;;;;;;4980758;28;20297;-74
2024/01/29 03:08:46;;;;;;;17.73;7.83;;;;;;;;;;4981716;28;20235;-74
2024/01/29 03:11:12;;;;;;;15.60;8.03;;;;;;;;;;4978071;28;20320;-74
2024/01/29 03:13:37;;;;;;;16.47;8.03;;;;;;;;;;4980637;28;20227;-75
2024/01/29 03:16:02;;;;;;;17.03;7.80;;;;;;;;;;4978407;28;20235;-74
2024/01/29 03:18:28;;;;;;;17.90;8.00;;;;;;;;;;4979686;28;20331;-75
2024/01/29 03:20:54;;;;;;;15.37;7.80;;;;;;;;;;4995691;28;20235;-74
2024/01/29 03:23:20;;;;;;;15.30;8.00;;;;;;;;;;4969757;28;20234;-74
2024/01/29 03:25:45;;;;;;;16.40;7.93;;;;;;;;;;4981718;28;20231;-74
2024/01/29 03:28:10;;;;;;;17.23;8.30;;;;;;;;;;4981017;28;20235;-74
2024/01/29 03:30:36;;;;;;;14.43;7.63;;;;;;;;;;4984007;28;20227;-75
2024/01/29 03:33:01;;;;;;;15.20;8.27;;;;;;;;;;4981379;28;20290;-74
2024/01/29 03:35:27;;;;;;;14.73;7.87;;;;;;;;;;4981520;28;20246;-75
2024/01/29 03:37:53;;;;;;;16.17;8.00;;;;;;;;;;4981166;28;20309;-75
2024/01/29 03:40:18;;;;;;;18.10;8.73;;;;;;;;;;4969746;28;20234;-74
2024/01/29 03:42:43;;;;;;;16.27;8.33;;;;;;;;;;4986561;28;20283;-74
2024/01/29 03:45:09;;;;;;;14.87;7.73;;;;;;;;;;4977362;28;20231;-73
2024/01/29 03:47:34;;;;;;;19.63;8.67;;;;;;;;;;4977254;28;20230;-74
2024/01/29 03:49:59;;;;;;;16.70;8.20;;;;;;;;;;4995951;28;20220;-75
2024/01/29 03:52:25;;;;;;;17.63;8.97;;;;;;;;;;4976397;28;20286;-74
2024/01/29 03:54:50;;;;;;;15.80;8.23;;;;;;;;;;4962860;28;20736;-74
2024/01/29 03:57:15;;;;;;;17.30;8.47;;;;;;;;;;4968396;28;20808;-74
2024/01/29 03:59:41;;;;;;;16.43;8.50;;;;;;;;;;4979912;28;20224;-74
2024/01/29 04:02:06;;;;;;;17.17;8.50;;;;;;;;;;4980081;28;20314;-75
2024/01/29 04:04:31;;;;;;;17.37;8.47;;;;;;;;;;4977099;28;20289;-74
2024/01/29 04:06:57;;;;;;;20.87;9.17;;;;;;;;;;4983492;28;20707;-74
2024/01/29 04:09:22;;;;;;;20.50;9.50;;;;;;;;;;4979917;28;20301;-74
2024/01/29 04:11:50;;;;;;;41.27;19.90;;;;;;;;;;4980761;28;20612;-74
2024/01/29 04:14:16;;;;;;;29.53;16.33;;;;;;;;;;4981619;28;20243;-73
2024/01/29 04:16:44;;;;;;;41.23;23.80;;;;;;;;;;4995550;28;20305;-76
2024/01/29 04:19:09;;;;;;;33.83;16.43;;;;;;;;;;4976581;28;20281;-73
2024/01/29 04:21:35;;;;;;;22.33;13.03;;;;;;;;;;4977509;28;20227;-73
2024/01/29 04:24:00;;;;;;;33.33;18.00;;;;;;;;;;4975860;28;20246;-74
2024/01/29 04:26:25;;;;;;;57.60;33.70;;;;;;;;;;4979221;28;20629;-74
2024/01/29 04:28:51;;;;;;;42.40;23.93;;;;;;;;;;4969524;28;20246;-75
2024/01/29 04:31:16;;;;;;;32.07;17.33;;;;;;;;;;4977198;28;20234;-75
2024/01/29 04:33:42;;;;;;;28.27;14.47;;;;;;;;;;4981404;28;20601;-75
2024/01/29 04:36:07;;;;;;;21.47;12.00;;;;;;;;;;4979675;28;20238;-74
2024/01/29 04:38:33;;;;;;;25.90;14.67;;;;;;;;;;4982531;28;20223;-74
2024/01/29 04:40:58;;;;;;;27.57;12.83;;;;;;;;;;4978271;28;20661;-74
2024/01/29 04:43:23;;;;;;;33.27;15.57;;;;;;;;;;4964605;28;20787;-74
2024/01/29 04:45:49;;;;;;;24.90;11.17;;;;;;;;;;4990049;28;20609;-75
2024/01/29 04:48:14;;;;;;;24.60;12.13;;;;;;;;;;4996820;28;20776;-75
2024/01/29 04:50:40;;;;;;;26.87;12.50;;;;;;;;;;4976971;28;20307;-73
2024/01/29 04:53:05;;;;;;;25.43;12.77;;;;;;;;;;4975682;28;20220;-72
2024/01/29 04:55:30;;;;;;;24.00;10.80;;;;;;;;;;4973649;28;20230;-72
2024/01/29 04:57:56;;;;;;;23.70;10.90;;;;;;;;;;4975080;28;20307;-72
2024/01/29 05:00:21;;;;;;;20.20;9.63;;;;;;;;;;4964756;28;20870;-72
2024/01/29 05:02:47;;;;;;;20.60;9.47;;;;;;;;;;4978533;28;20230;-71
2024/01/29 05:05:14;;;;;;;33.23;14.73;;;;;;;;;;4975798;28;20315;-72
2024/01/29 05:07:39;;;;;;;21.67;10.40;;;;;;;;;;4982733;28;20234;-73
2024/01/29 05:10:05;;;;;;;18.63;9.00;;;;;;;;;;4982926;28;20686;-71
2024/01/29 05:12:31;;;;;;;18.93;9.20;;;;;;;;;;4979359;28;20223;-73
2024/01/29 05:14:56;;;;;;;16.70;8.77;;;;;;;;;;4979645;28;20374;-72
2024/01/29 05:17:21;;;;;;;27.63;12.83;;;;;;;;;;4982972;28;20345;-72
2024/01/29 05:19:47;;;;;;;28.13;14.30;;;;;;;;;;4982647;28;20673;-72
2024/01/29 05:22:13;;;;;;;24.40;11.80;;;;;;;;;;4981190;28;20760;-73
2024/01/29 05:24:38;;;;;;;22.20;12.30;;;;;;;;;;4970529;28;20289;-73
2024/01/29 05:27:03;;;;;;;21.17;10.30;;;;;;;;;;4981040;28;20255;-73
2024/01/29 05:29:29;;;;;;;15.07;7.83;;;;;;;;;;4970004;28;20248;-72
2024/01/29 05:31:54;;;;;;;16.27;8.03;;;;;;;;;;4987122;28;20234;-73
2024/01/29 05:34:19;;;;;;;14.70;8.17;;;;;;;;;;4978892;28;20234;-72
2024/01/29 05:36:45;;;;;;;15.73;7.70;;;;;;;;;;4987477;28;20231;-72
2024/01/29 05:39:10;;;;;;;14.40;7.57;;;;;;;;;;4975994;28;20235;-72
2024/01/29 05:41:35;;;;;;;14.70;7.50;;;;;;;;;;4967271;28;20231;-72
2024/01/29 05:44:01;;;;;;;17.47;7.47;;;;;;;;;;4980259;28;20239;-72
2024/01/29 05:46:26;;;;;;;17.13;7.70;;;;;;;;;;4972321;28;20242;-72
2024/01/29 05:48:51;;;;;;;17.73;7.97;;;;;;;;;;4982169;28;20243;-73
2024/01/29 05:51:17;;;;;;;14.70;7.77;;;;;;;;;;4979358;28;20708;-72
2024/01/29 05:53:42;;;;;;;12.70;7.43;;;;;;;;;;4982986;28;20227;-70
2024/01/29 05:56:07;;;;;;;15.53;8.30;;;;;;;;;;4982669;28;20231;-74
2024/01/29 05:58:34;;;;;;;15.80;8.00;;;;;;;;;;4981705;28;20254;-72
2024/01/29 06:01:00;;;;;;;14.83;8.03;;;;;;;;;;4976533;28;20644;-71
2024/01/29 06:03:25;;;;;;;17.27;8.20;;;;;;;;;;4983942;28;20974;-72
2024/01/29 06:05:51;;;;;;;17.40;8.00;;;;;;;;;;4981059;28;20243;-73
2024/01/29 06:08:16;;;;;;;15.47;7.90;;;;;;;;;;4975204;28;20238;-71
2024/01/29 06:10:41;;;;;;;16.33;8.03;;;;;;;;;;4979429;28;20228;-72
2024/01/29 06:13:07;;;;;;;16.80;8.13;;;;;;;;;;4986424;28;20226;-73
2024/01/29 06:15:33;;;;;;;15.40;8.13;;;;;;;;;;4983078;28;20224;-72
2024/01/29 06:17:58;;;;;;;16.50;8.33;;;;;;;;;;4980344;28;20236;-72
2024/01/29 06:20:24;;;;;;;15.83;8.10;;;;;;;;;;4977984;28;20216;-72
2024/01/29 06:22:49;;;;;;;15.07;7.90;;;;;;;;;;4980613;28;20281;-74
2024/01/29 06:25:19;;;;;;;20.77;10.03;;;;;;;;;;4983101;28;20235;-72
2024/01/29 06:27:44;;;;;;;18.67;9.20;;;;;;;;;;4983723;28;20239;-72
2024/01/29 06:30:10;;;;;;;17.00;9.47;;;;;;;;;;4973710;28;20219;-71
2024/01/29 06:32:35;;;;;;;20.10;9.27;;;;;;;;;;4989493;28;20250;-72
2024/01/29 06:35:00;;;;;;;17.73;9.23;;;;;;;;;;4985702;28;20223;-72
2024/01/29 06:37:26;;;;;;;16.40;8.63;;;;;;;;;;4964548;28;20234;-71
2024/01/29 06:39:51;;;;;;;14.60;8.10;;;;;;;;;;4985898;28;20888;-71
2024/01/29 06:42:17;;;;;;;18.27;8.50;;;;;;;;;;4982088;28;20612;-71
2024/01/29 06:44:42;;;;;;;14.53;8.20;;;;;;;;;;4983863;28;20299;-71
2024/01/29 06:47:07;;;;;;;16.53;8.37;;;;;;;;;;4982620;28;20235;-71
2024/01/29 06:49:35;;;;;;;16.43;8.03;;;;;;;;;;4988334;28;20306;-71
2024/01/29 06:52:00;;;;;;;14.60;7.27;;;;;;;;;;4980652;28;20610;-71
2024/01/29 06:54:25;;;;;;;14.87;7.43;;;;;;;;;;4984421;28;20219;-72
2024/01/29 06:56:51;;;;;;;37.10;18.17;;;;;;;;;;4975500;28;20223;-71
2024/01/29 06:59:17;;;;;;;48.67;23.10;;;;;;;;;;4976884;28;20652;-71
2024/01/29 07:01:42;;;;;;;23.07;10.27;;;;;;;;;;4978342;28;20239;-71
2024/01/29 07:04:08;;;;;;;19.33;9.13;;;;;;;;;;4983239;28;20227;-70
2024/01/29 07:06:33;;;;;;;16.93;8.27;;;;;;;;;;4981108;28;20227;-70
2024/01/29 07:08:58;;;;;;;14.20;7.97;;;;;;;;;;4996216;28;20663;-71
2024/01/29 07:11:24;;;;;;;16.00;7.73;;;;;;;;;;4985698;28;20298;-71
2024/01/29 07:13:49;;;;;;;15.07;7.93;;;;;;;;;;4983196;28;20241;-72
2024/01/29 07:16:14;;;;;;;13.90;7.53;;;;;;;;;;4979170;28;20733;-71
2024/01/29 07:18:39;;;;;;;14.47;7.53;;;;;;;;;;4981364;28;20717;-70
2024/01/29 07:21:06;;;;;;;13.93;7.53;;;;;;;;;;4980560;28;20308;-70
2024/01/29 07:23:31;;;;;;;15.33;8.17;;;;;;;;;;4981367;28;20764;-69
2024/01/29 07:25:57;;;;;;;15.40;7.87;;;;;;;;;;4981461;28;20235;-75
2024/01/29 07:28:22;;;;;;;14.40;7.47;;;;;;;;;;4979029;28;20278;-73
2024/01/29 07:30:47;;;;;;;15.83;7.50;;;;;;;;;;4971264;28;20232;-74
2024/01/29 07:33:13;;;;;;;17.03;7.53;;;;;;;;;;4976834;28;20233;-74
2024/01/29 07:35:38;;;;;;;15.93;7.90;;;;;;;;;;4982615;28;20241;-73
2024/01/29 07:38:04;;;;;;;18.97;7.90;;;;;;;;;;4970246;28;20228;-75
2024/01/29 07:40:32;;;;;;;15.70;7.70;;;;;;;;;;4969732;28;20266;-75
2024/01/29 07:42:58;;;;;;;16.93;7.60;;;;;;;;;;4979789;28;20223;-74
2024/01/29 07:45:24;;;;;;;18.50;7.70;;;;;;;;;;4980318;28;20342;-75
2024/01/29 07:47:50;;;;;;;15.80;7.40;;;;;;;;;;4982598;28;20340;-74
2024/01/29 07:50:15;;;;;;;15.77;7.53;;;;;;;;;;4982405;28;20228;-74
2024/01/29 07:52:41;;;;;;;17.13;7.90;;;;;;;;;;4988139;28;20227;-74
2024/01/29 07:55:06;;;;;;;18.70;8.63;;;;;;;;;;4979331;28;21193;-74
2024/01/29 07:57:31;;;;;;;15.57;7.53;;;;;;;;;;4979799;28;20227;-74
2024/01/29 07:59:57;;;;;;;14.27;6.60;;;;;;;;;;4980602;28;20233;-75
2024/01/29 08:02:22;;;;;;;16.80;8.00;;;;;;;;;;4979858;28;20259;-73
2024/01/29 08:04:48;;;;;;;25.93;8.87;;;;;;;;;;4961062;28;20228;-75
2024/01/29 08:07:13;;;;;;;20.43;9.60;;;;;;;;;;4981492;28;20303;-74
2024/01/29 08:09:39;;;;;;;21.50;9.53;;;;;;;;;;4979967;28;20219;-74
2024/01/29 08:12:05;;;;;;;21.77;9.87;;;;;;;;;;4996695;28;20231;-71
2024/01/29 08:14:30;;;;;;;22.33;10.03;;;;;;;;;;4988053;28;20227;-71
2024/01/29 08:16:56;;;;;;;22.93;10.80;;;;;;;;;;4985217;28;20240;-70
2024/01/29 08:19:22;;;;;;;23.90;11.10;;;;;;;;;;4998302;28;20230;-72
2024/01/29 08:21:47;;;;;;;20.90;10.87;;;;;;;;;;4982552;28;20713;-74
2024/01/29 08:24:12;;;;;;;29.43;12.83;;;;;;;;;;4980221;28;20310;-73
2024/01/29 08:26:38;;;;;;;27.20;12.47;;;;;;;;;;4980981;28;20285;-74
2024/01/29 08:29:03;;;;;;;23.83;11.60;;;;;;;;;;4981435;28;20235;-75
2024/01/29 08:31:30;;;;;;;23.33;11.80;;;;;;;;;;4979917;28;20257;-74
2024/01/29 08:33:55;;;;;;;27.20;12.70;;;;;;;;;;4980259;28;20231;-74
2024/01/29 08:36:22;;;;;;;20.20;9.60;;;;;;;;;;4979096;28;20242;-74
2024/01/29 08:38:47;;;;;;;22.33;10.30;;;;;;;;;;4981746;28;20220;-73
2024/01/29 08:41:13;;;;;;;20.27;9.80;;;;;;;;;;4972452;28;20227;-74
2024/01/29 08:43:38;;;;;;;20.13;9.33;;;;;;;;;;4966733;28;20237;-74
2024/01/29 08:46:04;;;;;;;16.67;9.20;;;;;;;;;;4982978;28;20794;-75
2024/01/29 08:48:30;;;;;;;18.77;9.57;;;;;;;;;;4977175;28;20274;-74
2024/01/29 08:50:55;;;;;;;20.47;9.83;;;;;;;;;;4998692;28;20227;-76
2024/01/29 08:53:20;;;;;;;15.67;8.03;;;;;;;;;;4974770;28;20224;-75
2024/01/29 08:55:46;;;;;;;22.77;10.23;;;;;;;;;;4996257;28;20238;-75
2024/01/29 08:58:11;;;;;;;24.37;12.23;;;;;;;;;;4982495;28;20315;-75
2024/01/29 09:00:37;;;;;;;16.70;8.33;;;;;;;;;;4967340;28;20318;-75
2024/01/29 09:03:03;;;;;;;16.47;8.07;;;;;;;;;;4981202;28;20227;-74
2024/01/29 09:05:28;;;;;;;11.13;6.30;;;;;;;;;;4980251;28;20230;-74
2024/01/29 09:07:53;;;;;;;13.90;6.00;;;;;;;;;;4958381;28;20235;-75
2024/01/29 09:10:19;;;;;;;10.50;5.00;;;;;;;;;;4975770;28;20230;-74
2024/01/29 09:12:44;;;;;;;7.03;4.00;;;;;;;;;;4987926;28;20234;-71
2024/01/29 09:15:09;;;;;;;8.30;4.37;;;;;;;;;;4979386;28;20239;-70
2024/01/29 09:17:35;;;;;;;11.43;4.97;;;;;;;;;;4971511;28;20239;-70
2024/01/29 09:20:03;;;;;;;10.23;5.37;;;;;;;;;;4978464;28;20252;-72
2024/01/29 09:22:29;;;;;;;13.07;5.40;;;;;;;;;;4966871;28;20231;-71
2024/01/29 09:24:54;;;;;;;9.90;5.10;;;;;;;;;;4976090;28;20234;-70
2024/01/29 09:27:19;;;;;;;24.63;9.30;;;;;;;;;;4975713;28;20834;-70
2024/01/29 09:29:45;;;;;;;14.90;6.67;;;;;;;;;;4992592;28;20227;-71
2024/01/29 09:32:10;;;;;;;15.63;5.87;;;;;;;;;;4977091;28;20227;-71
2024/01/29 09:34:35;;;;;;;12.13;5.10;;;;;;;;;;4979914;28;20227;-71
2024/01/29 09:37:01;;;;;;;7.30;3.80;;;;;;;;;;4980740;28;20243;-71
2024/01/29 09:39:26;;;;;;;4.47;2.70;;;;;;;;;;4978586;28;20234;-71
2024/01/29 09:41:52;;;;;;;5.00;2.80;;;;;;;;;;4962136;28;20235;-70
2024/01/29 09:44:18;;;;;;;7.00;3.73;;;;;;;;;;4974202;28;20228;-70
2024/01/29 09:46:43;;;;;;;9.40;3.73;;;;;;;;;;4981715;28;20898;-71
2024/01/29 09:49:09;;;;;;;7.63;3.60;;;;;;;;;;4978952;28;20263;-71
2024/01/29 09:51:34;;;;;;;8.13;3.97;;;;;;;;;;4981976;28;20302;-70
2024/01/29 09:54:00;;;;;;;7.00;3.50;;;;;;;;;;4986215;28;20615;-71
2024/01/29 09:56:25;;;;;;;6.80;3.30;;;;;;;;;;4970253;28;20228;-71
2024/01/29 09:58:51;;;;;;;4.63;2.73;;;;;;;;;;4984577;28;20223;-69
2024/01/29 10:01:18;;;;;;;6.57;3.20;;;;;;;;;;4969352;28;20302;-70
2024/01/29 10:03:43;;;;;;;8.70;3.20;;;;;;;;;;4980269;28;20247;-70
2024/01/29 10:06:10;;;;;;;6.10;2.73;;;;;;;;;;4969561;28;20254;-71
2024/01/29 10:08:36;;;;;;;6.93;2.90;;;;;;;;;;4963817;28;20235;-70
2024/01/29 10:11:01;;;;;;;6.83;2.90;;;;;;;;;;4971358;28;20268;-71
2024/01/29 10:13:27;;;;;;;6.47;2.80;;;;;;;;;;4980697;28;20235;-70
2024/01/29 10:15:52;;;;;;;6.13;3.00;;;;;;;;;;4971386;28;20845;-71
2024/01/29 10:18:17;;;;;;;5.87;3.20;;;;;;;;;;4981549;28;21200;-70
2024/01/29 10:20:43;;;;;;;4.50;2.90;;;;;;;;;;4980129;28;20676;-69
2024/01/29 10:23:08;;;;;;;6.80;3.00;;;;;;;;;;4968671;28;20925;-72
2024/01/29 10:25:35;;;;;;;6.13;3.13;;;;;;;;;;4984786;28;20219;-71
2024/01/29 10:28:18;;;;;;;5.43;2.77;;;;;;;;;;4983917;28;20741;-71
2024/01/29 10:30:44;;;;;;;8.17;3.50;;;;;;;;;;4988542;28;20224;-70
2024/01/29 10:33:09;;;;;;;7.00;3.30;;;;;;;;;;4997855;28;20228;-71
2024/01/29 10:35:35;;;;;;;7.43;3.40;;;;;;;;;;4981599;28;20255;-70
2024/01/29 10:38:04;;;;;;;5.57;3.20;;;;;;;;;;4980813;28;20227;-70
2024/01/29 10:40:30;;;;;;;6.17;2.93;;;;;;;;;;4963552;28;20238;-71
2024/01/29 10:42:56;;;;;;;5.03;2.90;;;;;;;;;;4969850;28;20227;-69
2024/01/29 10:45:22;;;;;;;5.23;2.90;;;;;;;;;;4991454;28;20234;-71
2024/01/29 10:47:48;;;;;;;4.87;2.80;;;;;;;;;;4982053;28;20624;-71
2024/01/29 10:50:16;;;;;;;6.93;3.10;;;;;;;;;;4982010;28;20247;-70
2024/01/29 10:52:42;;;;;;;4.83;2.60;;;;;;;;;;4981543;28;20230;-70
2024/01/29 10:55:10;;;;;;;5.23;2.90;;;;;;;;;;4983720;28;20223;-71
2024/01/29 10:57:35;;;;;;;4.57;2.70;;;;;;;;;;4987214;28;20228;-70
2024/01/29 11:00:01;;;;;;;4.70;2.90;;;;;;;;;;4979411;28;20827;-71
2024/01/29 11:02:26;;;;;;;4.40;2.73;;;;;;;;;;4975420;28;20231;-71
2024/01/29 11:04:51;;;;;;;4.10;2.63;;;;;;;;;;4979105;28;20621;-70
2024/01/29 11:07:19;;;;;;;4.50;2.53;;;;;;;;;;4980044;28;20227;-71
2024/01/29 11:09:45;;;;;;;7.50;2.80;;;;;;;;;;4974064;28;20224;-70
2024/01/29 11:12:11;;;;;;;4.73;2.73;;;;;;;;;;4984754;28;20286;-71
2024/01/29 11:14:36;;;;;;;3.53;2.20;;;;;;;;;;4962822;28;20232;-70
2024/01/29 11:17:02;;;;;;;4.43;2.53;;;;;;;;;;4969564;28;20247;-76
2024/01/29 11:19:32;;;;;;;4.27;2.30;;;;;;;;;;4963238;28;20610;-73
2024/01/29 11:21:58;;;;;;;5.47;2.47;;;;;;;;;;4994313;28;20231;-71
2024/01/29 11:24:23;;;;;;;4.20;2.60;;;;;;;;;;4975565;28;20704;-71
2024/01/29 11:26:48;;;;;;;5.30;2.70;;;;;;;;;;4981063;28;20237;-71
2024/01/29 11:29:17;;;;;;;5.20;2.70;;;;;;;;;;4985718;28;20235;-70
2024/01/29 11:31:43;;;;;;;6.73;2.80;;;;;;;;;;4978768;28;20330;-71
2024/01/29 11:34:08;;;;;;;3.83;2.73;;;;;;;;;;4977411;28;20306;-71
2024/01/29 11:36:36;;;;;;;5.17;3.37;;;;;;;;;;4981354;28;20226;-70
2024/01/29 11:39:05;;;;;;;4.60;2.60;;;;;;;;;;4977652;28;20231;-71
2024/01/29 11:41:33;;;;;;;4.33;2.70;;;;;;;;;;4974460;28;20223;-71
2024/01/29 11:44:00;;;;;;;4.13;2.60;;;;;;;;;;4960743;28;20293;-71
2024/01/29 11:46:28;;;;;;;6.70;3.80;;;;;;;;;;4995466;28;20227;-71
2024/01/29 11:48:58;;;;;;;7.90;3.53;;;;;;;;;;4982423;28;20716;-71
2024/01/29 11:51:24;;;;;;;10.10;3.10;;;;;;;;;;4958931;28;20238;-70
2024/01/29 11:53:51;;;;;;;5.37;3.20;;;;;;;;;;4980366;28;20385;-71
2024/01/29 11:56:16;;;;;;;4.73;2.90;;;;;;;;;;4980255;28;20685;-71
2024/01/29 11:58:41;;;;;;;3.57;2.53;;;;;;;;;;4978743;28;20717;-71
2024/01/29 12:01:08;;;;;;;5.17;3.20;;;;;;;;;;4969380;28;20665;-70
2024/01/29 12:03:34;;;;;;;6.20;3.20;;;;;;;;;;4979168;28;20215;-70
2024/01/29 12:06:00;;;;;;;5.80;3.30;;;;;;;;;;4973904;28;20834;-70
2024/01/29 12:08:27;;;;;;;7.13;3.73;;;;;;;;;;4978708;28;20240;-71
2024/01/29 12:10:57;;;;;;;6.43;3.67;;;;;;;;;;4978255;28;20231;-72
2024/01/29 12:13:22;;;;;;;5.43;3.60;;;;;;;;;;4957543;28;20243;-71
2024/01/29 12:15:49;;;;;;;9.77;3.73;;;;;;;;;;4972141;28;20236;-70
2024/01/29 12:18:16;;;;;;;6.57;3.67;;;;;;;;;;4962211;28;20716;-71
2024/01/29 12:20:42;;;;;;;7.23;3.63;;;;;;;;;;4977861;28;20246;-70
2024/01/29 12:23:08;;;;;;;7.40;4.07;;;;;;;;;;4979797;28;20227;-71
2024/01/29 12:25:33;;;;;;;8.87;4.50;;;;;;;;;;4984514;28;20734;-71
2024/01/29 12:28:07;;;;;;;7.50;4.00;;;;;;;;;;4976986;28;20235;-69
2024/01/29 12:30:33;;;;;;;8.53;4.40;;;;;;;;;;4974507;28;20223;-70
2024/01/29 12:32:58;;;;;;;7.80;4.00;;;;;;;;;;4980647;28;20719;-70
2024/01/29 12:35:28;;;;;;;16.00;6.43;;;;;;;;;;4978116;28;20708;-69
2024/01/29 12:37:53;;;;;;;11.60;5.20;;;;;;;;;;4978866;28;20273;-71
2024/01/29 12:40:19;;;;;;;12.23;3.77;;;;;;;;;;4975551;28;20236;-72
2024/01/29 12:42:44;;;;;;;6.40;3.67;;;;;;;;;;4961658;28;20422;-71
2024/01/29 12:45:10;;;;;;;4.93;3.20;;;;;;;;;;4979899;28;20246;-71
2024/01/29 12:47:35;;;;;;;5.93;3.60;;;;;;;;;;4982863;28;20301;-71
2024/01/29 12:50:00;;;;;;;7.23;3.43;;;;;;;;;;4972447;28;20231;-71
2024/01/29 12:52:28;;;;;;;5.60;3.30;;;;;;;;;;4988751;28;20231;-71
2024/01/29 12:54:56;;;;;;;6.67;3.47;;;;;;;;;;4980580;28;21047;-71
2024/01/29 12:57:21;;;;;;;8.43;3.60;;;;;;;;;;4979701;28;20322;-71
2024/01/29 12:59:46;;;;;;;6.43;3.37;;;;;;;;;;4982672;28;20933;-71
2024/01/29 13:02:12;;;;;;;6.80;3.30;;;;;;;;;;4981224;28;20286;-70
2024/01/29 13:04:37;;;;;;;6.03;3.23;;;;;;;;;;4981795;28;20223;-72
2024/01/29 13:07:02;;;;;;;5.43;2.93;;;;;;;;;;4982595;28;20243;-74
2024/01/29 13:09:28;;;;;;;6.23;3.03;;;;;;;;;;4982479;28;20242;-75
2024/01/29 13:11:54;;;;;;;9.37;3.50;;;;;;;;;;4978769;28;20293;-74
2024/01/29 13:14:19;;;;;;;7.03;3.30;;;;;;;;;;4979018;28;20725;-71
2024/01/29 13:16:45;;;;;;;7.17;3.80;;;;;;;;;;4978299;28;20247;-70
2024/01/29 13:19:10;;;;;;;6.33;3.70;;;;;;;;;;4963547;28;20974;-72
2024/01/29 13:21:36;;;;;;;7.73;4.10;;;;;;;;;;4982486;28;20223;-71
2024/01/29 13:24:01;;;;;;;6.83;3.83;;;;;;;;;;4980448;28;20247;-71
2024/01/29 13:26:29;;;;;;;7.77;3.73;;;;;;;;;;4986008;28;20339;-72
2024/01/29 13:28:55;;;;;;;5.37;3.30;;;;;;;;;;4986069;28;20258;-71
2024/01/29 13:31:21;;;;;;;6.40;3.70;;;;;;;;;;4981193;28;20220;-69
2024/01/29 13:33:46;;;;;;;5.67;3.40;;;;;;;;;;4981176;28;20294;-70
2024/01/29 13:36:12;;;;;;;5.40;3.23;;;;;;;;;;4982186;28;20234;-71
2024/01/29 13:38:38;;;;;;;8.83;3.20;;;;;;;;;;4980203;28;20235;-71
2024/01/29 13:41:03;;;;;;;4.60;2.90;;;;;;;;;;4962494;28;20227;-71
2024/01/29 13:43:28;;;;;;;5.20;3.00;;;;;;;;;;4980748;28;20302;-71
2024/01/29 13:45:54;;;;;;;5.43;3.30;;;;;;;;;;4982421;28;20230;-74
2024/01/29 13:48:19;;;;;;;5.63;3.23;;;;;;;;;;4998436;28;20235;-74
2024/01/29 13:50:44;;;;;;;8.10;3.10;;;;;;;;;;4970863;28;20239;-75
2024/01/29 13:53:10;;;;;;;6.03;3.30;;;;;;;;;;4962793;28;20326;-74
2024/01/29 13:55:35;;;;;;;5.90;3.60;;;;;;;;;;5000651;28;20281;-73
2024/01/29 13:58:01;;;;;;;6.80;3.40;;;;;;;;;;4986911;28;20228;-74
2024/01/29 14:00:27;;;;;;;6.80;3.30;;;;;;;;;;4982519;28;20227;-73
2024/01/29 14:02:52;;;;;;;6.00;3.30;;;;;;;;;;4969592;28;20231;-76
2024/01/29 14:05:17;;;;;;;7.03;3.37;;;;;;;;;;4987672;28;20224;-75
2024/01/29 14:07:42;;;;;;;5.57;3.33;;;;;;;;;;4982124;28;20740;-73
2024/01/29 14:10:08;;;;;;;9.93;3.30;;;;;;;;;;4984837;28;20231;-75
2024/01/29 14:12:33;;;;;;;4.80;3.00;;;;;;;;;;4966076;28;20704;-74
2024/01/29 14:15:01;;;;;;;5.73;3.00;;;;;;;;;;4966242;28;20229;-77
2024/01/29 14:17:27;;;;;;;6.73;3.07;;;;;;;;;;4982237;28;20447;-73
2024/01/29 14:19:52;;;;;;;6.50;3.30;;;;;;;;;;4982379;28;20314;-75
2024/01/29 14:22:18;;;;;;;5.20;2.97;;;;;;;;;;4963543;28;20259;-74
2024/01/29 14:24:44;;;;;;;6.10;2.80;;;;;;;;;;4979594;28;20228;-74